createdAt,value
2023-03-21T00:00:28.998Z,9.48
2023-03-21T00:02:55.565Z,9.46
2023-03-21T00:05:22.479Z,9.43
2023-03-21T00:07:49.081Z,9.37
2023-03-21T00:10:23.923Z,9.31
2023-03-21T00:12:56.337Z,9.36
2023-03-21T00:15:24.988Z,9.43
2023-03-21T00:17:57.582Z,9.50
2023-03-21T00:20:24.244Z,9.52
2023-03-21T00:22:50.698Z,9.53
2023-03-21T00:25:17.234Z,9.49
2023-03-21T00:27:57.232Z,9.53
2023-03-21T00:30:30.000Z,9.57
2023-03-21T00:32:57.017Z,9.59
2023-03-21T00:36:06.450Z,9.56
2023-03-21T00:38:10.623Z,9.54
2023-03-21T00:40:40.839Z,9.58
2023-03-21T00:43:16.118Z,9.60
2023-03-21T00:45:42.794Z,9.61
2023-03-21T00:48:09.774Z,9.59
2023-03-21T00:50:37.392Z,9.52
2023-03-21T00:53:03.877Z,9.52
2023-03-21T00:55:30.373Z,9.40
2023-03-21T00:58:02.172Z,9.30
2023-03-21T01:00:29.590Z,9.32
2023-03-21T01:03:02.666Z,9.38
2023-03-21T01:05:42.461Z,9.42
2023-03-21T01:08:22.989Z,9.47
2023-03-21T01:10:52.671Z,9.48
2023-03-21T01:13:20.306Z,9.51
2023-03-21T01:15:57.473Z,9.48
2023-03-21T01:18:27.720Z,9.49
2023-03-21T01:20:56.062Z,9.54
2023-03-21T01:23:22.845Z,9.56
2023-03-21T01:25:50.930Z,9.54
2023-03-21T01:28:17.411Z,9.52
2023-03-21T01:30:48.826Z,9.47
2023-03-21T01:33:16.320Z,9.47
2023-03-21T01:35:51.625Z,9.49
2023-03-21T01:38:21.817Z,9.42
2023-03-21T01:40:49.884Z,9.36
2023-03-21T01:43:21.680Z,9.29
2023-03-21T01:46:10.629Z,9.20
2023-03-21T01:48:41.974Z,9.18
2023-03-21T01:51:12.356Z,9.12
2023-03-21T01:53:40.753Z,9.16
2023-03-21T01:56:42.653Z,9.12
2023-03-21T01:59:14.227Z,9.11
2023-03-21T02:01:41.136Z,9.15
2023-03-21T02:04:08.096Z,9.16
2023-03-21T02:06:51.851Z,9.08
2023-03-21T02:09:22.564Z,8.96
2023-03-21T02:11:49.350Z,8.95
2023-03-21T02:14:27.001Z,8.91
2023-03-21T02:17:24.098Z,8.91
2023-03-21T02:20:05.107Z,8.88
2023-03-21T02:22:31.519Z,8.90
2023-03-21T02:25:21.749Z,8.93
2023-03-21T02:28:00.580Z,8.84
2023-03-21T02:31:13.797Z,8.75
2023-03-21T02:33:57.426Z,8.71
2023-03-21T02:36:48.395Z,8.69
2023-03-21T02:39:19.463Z,8.60
2023-03-21T02:41:52.222Z,8.61
2023-03-21T02:44:41.612Z,8.59
2023-03-21T02:47:14.965Z,8.58
2023-03-21T02:50:10.430Z,8.55
2023-03-21T02:52:39.819Z,8.55
2023-03-21T02:55:14.564Z,8.49
2023-03-21T02:57:44.416Z,8.50
2023-03-21T03:00:17.517Z,8.44
2023-03-21T03:02:44.787Z,8.41
2023-03-21T03:05:21.354Z,8.48
2023-03-21T03:07:48.229Z,8.47
2023-03-21T03:10:44.029Z,8.40
2023-03-21T03:13:16.435Z,8.32
2023-03-21T03:15:56.800Z,8.28
2023-03-21T03:18:29.298Z,8.23
2023-03-21T03:21:07.950Z,8.20
2023-03-21T03:23:34.349Z,8.13
2023-03-21T03:26:17.902Z,8.14
2023-03-21T03:28:52.714Z,8.13
2023-03-21T03:31:24.215Z,8.20
2023-03-21T03:33:54.488Z,8.25
2023-03-21T03:36:32.038Z,8.23
2023-03-21T03:39:02.296Z,8.22
2023-03-21T03:41:31.875Z,8.17
2023-03-21T03:44:03.556Z,8.10
2023-03-21T03:46:31.993Z,8.09
2023-03-21T03:49:04.985Z,8.01
2023-03-21T03:51:39.076Z,7.95
2023-03-21T03:54:11.143Z,7.96
2023-03-21T03:56:38.119Z,7.98
2023-03-21T03:59:05.512Z,7.97
2023-03-21T04:01:32.073Z,8.03
2023-03-21T04:04:11.943Z,8.09
2023-03-21T04:06:39.122Z,8.06
2023-03-21T04:09:17.132Z,8.02
2023-03-21T04:11:46.277Z,8.04
2023-03-21T04:14:12.865Z,8.02
2023-03-21T04:16:39.354Z,7.99
2023-03-21T04:19:05.894Z,8.03
2023-03-21T04:21:32.577Z,8.01
2023-03-21T04:23:59.069Z,8.00
2023-03-21T04:26:25.775Z,8.00
2023-03-21T04:28:52.241Z,8.02
2023-03-21T04:31:25.472Z,8.06
2023-03-21T04:33:52.607Z,8.07
2023-03-21T04:36:19.254Z,7.97
2023-03-21T04:38:45.739Z,7.95
2023-03-21T04:41:12.225Z,7.91
2023-03-21T04:43:38.701Z,7.94
2023-03-21T04:46:05.450Z,7.94
2023-03-21T04:48:31.951Z,7.96
2023-03-21T04:50:58.412Z,7.95
2023-03-21T04:53:24.862Z,7.93
2023-03-21T04:55:54.889Z,7.83
2023-03-21T04:58:21.853Z,7.90
2023-03-21T05:00:48.358Z,7.83
2023-03-21T05:03:14.879Z,7.80
2023-03-21T05:05:41.294Z,7.84
2023-03-21T05:08:07.764Z,7.90
2023-03-21T05:10:34.267Z,7.92
2023-03-21T05:13:00.758Z,7.95
2023-03-21T05:15:27.262Z,7.96
2023-03-21T05:17:53.757Z,7.96
2023-03-21T05:20:20.187Z,7.97
2023-03-21T05:22:46.614Z,7.99
2023-03-21T05:25:13.368Z,7.99
2023-03-21T05:27:40.134Z,8.14
2023-03-21T05:30:16.521Z,8.23
2023-03-21T05:32:43.083Z,8.29
2023-03-21T05:35:10.333Z,8.37
2023-03-21T05:37:36.892Z,8.51
2023-03-21T05:40:04.102Z,8.60
2023-03-21T05:42:30.577Z,8.71
2023-03-21T05:44:57.018Z,8.86
2023-03-21T05:47:23.508Z,8.99
2023-03-21T05:49:49.990Z,9.10
2023-03-21T05:52:16.823Z,9.19
2023-03-21T05:54:43.371Z,9.22
2023-03-21T05:57:10.160Z,9.22
2023-03-21T05:59:36.840Z,9.29
2023-03-21T06:02:03.910Z,9.41
2023-03-21T06:04:30.597Z,9.47
2023-03-21T06:06:57.336Z,9.57
2023-03-21T06:09:24.200Z,9.59
2023-03-21T06:11:52.892Z,9.65
2023-03-21T06:14:20.470Z,9.78
2023-03-21T06:16:46.970Z,9.89
2023-03-21T06:19:14.079Z,9.97
2023-03-21T06:21:40.747Z,10.07
2023-03-21T06:24:07.373Z,10.17
2023-03-21T06:26:33.901Z,10.27
2023-03-21T06:29:00.435Z,10.37
2023-03-21T06:31:26.939Z,10.28
2023-03-21T06:33:53.632Z,10.40
2023-03-21T06:36:20.508Z,10.50
2023-03-21T06:38:47.006Z,10.52
2023-03-21T06:41:13.643Z,10.40
2023-03-21T06:43:40.118Z,10.48
2023-03-21T06:46:06.591Z,10.53
2023-03-21T06:48:33.235Z,10.58
2023-03-21T06:50:59.706Z,10.70
2023-03-21T06:53:26.392Z,10.80
2023-03-21T06:55:54.453Z,11.03
2023-03-21T06:58:22.097Z,11.16
2023-03-21T07:00:49.106Z,11.38
2023-03-21T07:03:15.818Z,11.60
2023-03-21T07:05:42.789Z,11.78
2023-03-21T07:08:09.395Z,11.86
2023-03-21T07:10:39.274Z,11.97
2023-03-21T07:13:06.162Z,11.95
2023-03-21T07:15:32.976Z,12.16
2023-03-21T07:17:59.430Z,12.12
2023-03-21T07:20:26.148Z,12.32
2023-03-21T07:22:52.881Z,12.53
2023-03-21T07:25:19.405Z,12.74
2023-03-21T07:27:46.475Z,12.92
2023-03-21T07:30:14.008Z,13.11
2023-03-21T07:32:40.702Z,13.15
2023-03-21T07:35:10.648Z,13.28
2023-03-21T07:37:38.235Z,13.42
2023-03-21T07:40:05.263Z,13.55
2023-03-21T07:44:59.066Z,13.62
2023-03-21T07:47:25.526Z,13.72
2023-03-21T07:49:51.976Z,13.85
2023-03-21T07:52:18.456Z,13.92
2023-03-21T07:54:44.912Z,14.03
2023-03-21T07:57:13.546Z,14.15
2023-03-21T07:59:40.204Z,14.16
2023-03-21T08:02:07.030Z,14.24
2023-03-21T08:04:34.162Z,14.27
2023-03-21T08:07:00.581Z,14.50
2023-03-21T08:09:27.023Z,14.61
2023-03-21T08:11:53.545Z,14.67
2023-03-21T08:14:20.033Z,14.75
2023-03-21T08:16:46.568Z,14.81
2023-03-21T08:19:13.071Z,14.68
2023-03-21T08:21:39.534Z,14.75
2023-03-21T08:24:06.169Z,14.78
2023-03-21T08:26:33.097Z,14.92
2023-03-21T08:29:00.020Z,14.97
2023-03-21T08:31:26.600Z,14.89
2023-03-21T08:33:53.106Z,15.02
2023-03-21T08:36:19.734Z,15.26
2023-03-21T08:38:46.219Z,15.49
2023-03-21T08:41:12.715Z,15.66
2023-03-21T08:43:39.189Z,15.98
2023-03-21T08:46:06.037Z,16.22
2023-03-21T08:48:32.777Z,16.10
2023-03-21T08:51:02.408Z,16.25
2023-03-21T08:53:28.922Z,16.54
2023-03-21T08:55:55.501Z,16.86
2023-03-21T08:58:22.998Z,17.05
2023-03-21T09:00:49.751Z,17.21
2023-03-21T09:03:16.467Z,17.51
2023-03-21T09:05:42.990Z,17.63
2023-03-21T09:08:09.461Z,17.91
2023-03-21T09:10:35.914Z,18.34
2023-03-21T09:13:02.381Z,18.71
2023-03-21T09:15:28.885Z,18.95
2023-03-21T09:17:56.335Z,19.04
2023-03-21T09:20:24.912Z,19.33
2023-03-21T09:22:52.168Z,19.65
2023-03-21T09:25:19.006Z,19.62
2023-03-21T09:27:46.090Z,19.73
2023-03-21T09:30:14.306Z,19.99
2023-03-21T09:32:40.794Z,20.04
2023-03-21T09:35:07.594Z,20.18
2023-03-21T09:37:34.306Z,19.49
2023-03-21T09:40:00.660Z,19.67
2023-03-21T09:42:35.626Z,19.97
2023-03-21T09:45:12.593Z,19.99
2023-03-21T09:47:45.564Z,20.39
2023-03-21T09:50:19.669Z,20.97
2023-03-21T09:52:56.948Z,21.42
2023-03-21T09:55:25.671Z,22.11
2023-03-21T09:58:23.841Z,22.66
2023-03-21T10:00:54.229Z,22.79
2023-03-21T10:03:24.827Z,23.06
2023-03-21T10:05:52.971Z,23.45
2023-03-21T10:08:26.902Z,23.16
2023-03-21T10:10:58.249Z,23.30
2023-03-21T10:13:29.224Z,23.12
2023-03-21T10:16:02.385Z,23.27
2023-03-21T10:18:31.321Z,22.89
2023-03-21T10:20:58.125Z,22.66
2023-03-21T10:23:29.400Z,21.85
2023-03-21T10:25:59.774Z,21.69
2023-03-21T10:28:46.026Z,22.02
2023-03-21T10:31:21.464Z,22.31
2023-03-21T10:33:50.585Z,22.64
2023-03-21T10:36:26.872Z,22.60
2023-03-21T10:38:58.303Z,22.78
2023-03-21T10:41:24.771Z,22.88
2023-03-21T10:44:16.697Z,23.03
2023-03-21T10:46:54.815Z,22.74
2023-03-21T10:49:22.295Z,22.14
2023-03-21T10:51:55.249Z,21.95
2023-03-21T10:54:22.556Z,21.84
2023-03-21T10:56:57.964Z,21.96
2023-03-21T10:59:26.351Z,21.50
2023-03-21T11:01:56.438Z,21.09
2023-03-21T11:04:27.380Z,20.65
2023-03-21T11:06:57.410Z,20.64
2023-03-21T11:09:28.367Z,20.44
2023-03-21T11:12:02.988Z,20.42
2023-03-21T11:14:38.387Z,20.30
2023-03-21T11:17:20.420Z,20.07
2023-03-21T11:19:58.283Z,20.04
2023-03-21T11:22:46.120Z,20.38
2023-03-21T11:25:31.798Z,20.59
2023-03-21T11:28:04.946Z,20.46
2023-03-21T11:30:31.493Z,20.13
2023-03-21T11:33:02.337Z,20.15
2023-03-21T11:35:37.603Z,20.25
2023-03-21T11:38:05.329Z,20.21
2023-03-21T11:40:37.108Z,20.53
2023-03-21T11:43:18.653Z,20.98
2023-03-21T11:45:58.637Z,20.99
2023-03-21T11:48:25.830Z,21.04
2023-03-21T11:51:00.647Z,21.24
2023-03-21T11:54:08.471Z,21.41
2023-03-21T11:56:41.014Z,21.61
2023-03-21T11:59:23.248Z,21.79
2023-03-21T12:02:33.096Z,21.48
2023-03-21T12:05:17.352Z,21.47
2023-03-21T12:07:52.570Z,21.66
2023-03-21T12:10:32.754Z,21.75
2023-03-21T12:13:33.368Z,21.73
2023-03-21T12:16:30.903Z,21.72
2023-03-21T12:19:00.117Z,21.88
2023-03-21T12:22:01.918Z,21.80
2023-03-21T12:24:50.299Z,22.14
2023-03-21T12:27:25.749Z,22.21
2023-03-21T12:30:34.037Z,22.11
2023-03-21T12:33:06.249Z,22.40
2023-03-21T12:35:59.510Z,22.69
2023-03-21T12:38:40.458Z,22.70
2023-03-21T12:41:28.395Z,22.74
2023-03-21T12:44:03.179Z,22.83
2023-03-21T12:46:57.051Z,22.94
2023-03-21T12:49:46.861Z,22.91
2023-03-21T12:52:25.625Z,22.94
2023-03-21T12:54:57.484Z,22.98
2023-03-21T12:57:32.635Z,22.95
2023-03-21T13:00:17.485Z,23.01
2023-03-21T13:02:51.888Z,22.84
2023-03-21T13:05:33.540Z,22.83
2023-03-21T13:08:18.054Z,22.79
2023-03-21T13:10:45.626Z,22.76
2023-03-21T13:13:22.636Z,22.67
2023-03-21T13:16:18.512Z,22.37
2023-03-21T13:19:09.503Z,22.23
2023-03-21T13:21:51.148Z,22.07
2023-03-21T13:24:17.528Z,21.76
2023-03-21T13:26:49.484Z,21.56
2023-03-21T13:29:23.738Z,21.38
2023-03-21T13:31:54.600Z,21.20
2023-03-21T13:34:24.146Z,21.05
2023-03-21T13:36:52.202Z,20.86
2023-03-21T13:39:28.921Z,20.81
2023-03-21T13:41:55.500Z,20.80
2023-03-21T13:44:21.861Z,20.75
2023-03-21T13:46:59.991Z,20.73
2023-03-21T13:49:29.868Z,20.54
2023-03-21T13:51:58.808Z,20.42
2023-03-21T13:54:45.323Z,20.40
2023-03-21T13:57:41.054Z,20.44
2023-03-21T14:00:22.096Z,20.42
2023-03-21T14:02:59.569Z,20.39
2023-03-21T14:05:27.951Z,20.37
2023-03-21T14:08:27.767Z,20.27
2023-03-21T14:11:07.736Z,20.20
2023-03-21T14:13:38.111Z,20.12
2023-03-21T14:16:18.971Z,19.96
2023-03-21T14:18:56.124Z,19.90
2023-03-21T14:21:28.780Z,19.80
2023-03-21T14:24:04.021Z,19.76
2023-03-21T14:26:34.085Z,19.71
2023-03-21T14:29:05.511Z,19.68
2023-03-21T14:31:34.124Z,19.55
2023-03-21T14:34:02.376Z,19.54
2023-03-21T14:36:32.818Z,19.53
2023-03-21T14:39:15.749Z,19.40
2023-03-21T14:41:54.777Z,19.35
2023-03-21T14:44:25.319Z,19.36
2023-03-21T14:47:06.515Z,19.28
2023-03-21T14:49:36.887Z,19.22
2023-03-21T14:52:26.133Z,19.12
2023-03-21T14:54:53.501Z,19.13
2023-03-21T14:57:24.045Z,19.11
2023-03-21T14:59:53.677Z,19.09
2023-03-21T15:02:22.623Z,19.04
2023-03-21T15:04:52.600Z,19.06
2023-03-21T15:07:25.324Z,19.02
2023-03-21T15:09:57.936Z,19.01
2023-03-21T15:12:24.441Z,18.97
2023-03-21T15:14:51.295Z,18.96
2023-03-21T15:17:19.280Z,18.91
2023-03-21T15:19:45.868Z,18.85
2023-03-21T15:22:33.754Z,18.79
2023-03-21T15:25:07.566Z,18.73
2023-03-21T15:27:38.614Z,18.70
2023-03-21T15:30:06.584Z,18.62
2023-03-21T15:32:36.309Z,18.57
2023-03-21T15:35:15.771Z,18.52
2023-03-21T15:37:42.636Z,18.44
2023-03-21T15:40:15.375Z,18.41
2023-03-21T15:42:42.116Z,18.30
2023-03-21T15:45:28.894Z,18.24
2023-03-21T15:48:01.301Z,18.18
2023-03-21T15:50:46.506Z,18.11
2023-03-21T15:53:18.786Z,18.09
2023-03-21T15:55:51.627Z,18.04
2023-03-21T15:58:21.526Z,18.00
2023-03-21T16:00:52.788Z,17.94
2023-03-21T16:03:32.461Z,17.89
2023-03-21T16:06:11.354Z,17.85
2023-03-21T16:08:45.540Z,17.82
2023-03-21T16:11:28.599Z,17.74
2023-03-21T16:13:56.316Z,17.66
2023-03-21T16:16:28.003Z,17.66
2023-03-21T16:18:55.932Z,17.63
2023-03-21T16:21:25.593Z,17.56
2023-03-21T16:23:52.696Z,17.50
2023-03-21T16:26:25.505Z,17.45
2023-03-21T16:28:52.150Z,17.41
2023-03-21T16:31:21.489Z,17.37
2023-03-21T16:33:48.402Z,17.29
2023-03-21T16:36:17.868Z,17.25
2023-03-21T16:38:48.326Z,17.21
2023-03-21T16:41:15.639Z,17.14
2023-03-21T16:43:43.624Z,17.13
2023-03-21T16:46:17.121Z,17.05
2023-03-21T16:48:45.686Z,17.01
2023-03-21T16:51:18.003Z,16.97
2023-03-21T16:53:45.763Z,16.93
2023-03-21T16:56:58.617Z,16.86
2023-03-21T16:59:25.262Z,16.83
2023-03-21T17:01:51.710Z,16.72
2023-03-21T17:04:18.617Z,16.63
2023-03-21T17:06:45.030Z,16.57
2023-03-21T17:09:16.419Z,16.57
2023-03-21T17:11:43.591Z,16.49
2023-03-21T17:14:11.836Z,16.45
2023-03-21T17:16:39.161Z,16.41
2023-03-21T17:19:22.353Z,16.32
2023-03-21T17:21:48.769Z,16.30
2023-03-21T17:24:15.367Z,16.29
2023-03-21T17:26:41.938Z,16.29
2023-03-21T17:29:13.128Z,16.24
2023-03-21T17:31:39.618Z,16.20
2023-03-21T17:34:06.169Z,16.17
2023-03-21T17:36:38.130Z,16.14
2023-03-21T17:39:07.308Z,16.09
2023-03-21T17:41:33.754Z,16.04
2023-03-21T17:44:00.466Z,15.98
2023-03-21T17:46:28.190Z,15.90
2023-03-21T17:48:55.190Z,15.83
2023-03-21T17:51:21.686Z,15.74
2023-03-21T17:53:49.986Z,15.73
2023-03-21T17:56:21.796Z,15.70
2023-03-21T17:58:49.157Z,15.62
2023-03-21T18:01:15.677Z,15.54
2023-03-21T18:03:42.197Z,15.36
2023-03-21T18:06:15.146Z,15.26
2023-03-21T18:08:41.785Z,15.18
2023-03-21T18:11:09.114Z,15.12
2023-03-21T18:13:35.888Z,15.05
2023-03-21T18:16:02.660Z,15.04
2023-03-21T18:18:29.199Z,15.12
2023-03-21T18:20:57.953Z,15.07
2023-03-21T18:23:25.420Z,14.98
2023-03-21T18:25:52.662Z,14.90
2023-03-21T18:28:21.228Z,14.88
2023-03-21T18:33:37.222Z,14.72
2023-03-21T18:36:07.535Z,14.68
2023-03-21T18:38:35.255Z,14.62
2023-03-21T18:41:01.767Z,14.68
2023-03-21T18:46:15.546Z,14.54
2023-03-21T18:48:41.976Z,14.58
2023-03-21T18:51:08.471Z,14.57
2023-03-21T18:53:34.912Z,14.56
2023-03-21T18:56:02.007Z,14.61
2023-03-21T18:58:28.526Z,14.61
2023-03-21T19:00:57.484Z,14.62
2023-03-21T19:03:35.661Z,14.58
2023-03-21T19:06:04.030Z,14.54
2023-03-21T19:08:30.900Z,14.44
2023-03-21T19:11:00.211Z,14.41
2023-03-21T19:13:30.105Z,14.42
2023-03-21T19:15:56.918Z,14.44
2023-03-21T19:18:41.450Z,14.51
2023-03-21T19:21:10.263Z,14.38
2023-03-21T19:24:11.765Z,14.39
2023-03-21T19:26:27.434Z,14.33
2023-03-21T19:28:55.003Z,14.29
2023-03-21T19:31:22.752Z,14.29
2023-03-21T19:33:49.512Z,14.31
2023-03-21T19:36:21.944Z,14.28
2023-03-21T19:38:49.134Z,14.31
2023-03-21T19:41:15.777Z,14.26
2023-03-21T19:43:53.200Z,14.12
2023-03-21T19:46:21.176Z,14.03
2023-03-21T19:48:47.673Z,14.09
2023-03-21T19:51:27.558Z,14.10
2023-03-21T19:53:54.548Z,14.13
2023-03-21T19:56:24.620Z,14.11
2023-03-21T19:58:53.461Z,14.10
2023-03-21T20:01:20.524Z,14.10
2023-03-21T20:03:47.131Z,14.06
2023-03-21T20:06:13.624Z,14.02
2023-03-21T20:11:26.595Z,14.04
2023-03-21T20:13:53.145Z,13.96
2023-03-21T20:16:20.449Z,13.91
2023-03-21T20:18:47.431Z,13.88
2023-03-21T20:21:18.041Z,13.87
2023-03-21T20:23:48.149Z,13.81
2023-03-21T20:26:15.002Z,13.75
2023-03-21T20:28:56.141Z,13.69
2023-03-21T20:31:27.985Z,13.66
2023-03-21T20:33:54.457Z,13.58
2023-03-21T20:36:38.851Z,13.51
2023-03-21T20:39:06.855Z,13.44
2023-03-21T20:41:33.442Z,13.51
2023-03-21T20:46:46.600Z,13.45
2023-03-21T20:49:14.007Z,13.54
2023-03-21T20:54:27.219Z,13.56
2023-03-21T20:56:53.705Z,13.49
2023-03-21T20:59:26.595Z,13.33
2023-03-21T21:01:55.142Z,13.27
2023-03-21T21:04:22.430Z,13.14
2023-03-21T21:06:49.618Z,13.08
2023-03-21T21:09:16.912Z,13.14
2023-03-21T21:12:06.161Z,13.12
2023-03-21T21:14:29.982Z,13.10
2023-03-21T21:16:56.455Z,13.08
2023-03-21T21:19:22.911Z,12.88
2023-03-21T21:21:49.372Z,12.74
2023-03-21T21:24:15.798Z,12.67
2023-03-21T21:26:42.337Z,12.56
2023-03-21T21:29:08.865Z,12.56
2023-03-21T21:31:38.230Z,12.63
2023-03-21T21:34:04.708Z,12.68
2023-03-21T21:36:31.178Z,12.69
2023-03-21T21:38:57.634Z,12.75
2023-03-21T21:41:24.064Z,12.80
2023-03-21T21:43:50.525Z,12.76
2023-03-21T21:46:16.996Z,12.66
2023-03-21T21:48:44.281Z,12.60
2023-03-21T21:51:10.948Z,12.48
2023-03-21T21:53:37.515Z,12.55
2023-03-21T21:56:04.174Z,12.53
2023-03-21T21:58:30.675Z,12.54
2023-03-21T22:01:01.204Z,12.52
2023-03-21T22:03:27.791Z,12.53
2023-03-21T22:06:01.925Z,12.41
2023-03-21T22:08:28.415Z,12.35
2023-03-21T22:10:54.967Z,12.27
2023-03-21T22:13:21.520Z,12.15
2023-03-21T22:15:48.302Z,12.14
2023-03-21T22:18:14.806Z,12.15
2023-03-21T22:20:41.484Z,12.11
2023-03-21T22:23:07.997Z,11.97
2023-03-21T22:25:34.513Z,11.85
2023-03-21T22:28:01.074Z,11.78
2023-03-21T22:30:27.604Z,11.78
2023-03-21T22:33:08.433Z,11.72
2023-03-21T22:35:35.278Z,11.69
2023-03-21T22:38:01.747Z,11.68
2023-03-21T22:40:28.281Z,11.66
2023-03-21T22:42:54.753Z,11.56
2023-03-21T22:45:21.205Z,11.60
2023-03-21T22:47:47.679Z,11.54
2023-03-21T22:50:14.224Z,11.48
2023-03-21T22:52:40.694Z,11.48
2023-03-21T22:55:07.440Z,11.50
2023-03-21T22:57:33.896Z,11.55
2023-03-21T23:00:00.370Z,11.57
2023-03-21T23:02:27.178Z,11.61
2023-03-21T23:04:53.643Z,11.59
2023-03-21T23:07:20.131Z,11.55
2023-03-21T23:09:46.624Z,11.52
2023-03-21T23:12:13.077Z,11.40
2023-03-21T23:14:39.539Z,11.36
2023-03-21T23:17:08.435Z,11.39
2023-03-21T23:19:35.061Z,11.35
2023-03-21T23:22:02.709Z,11.25
2023-03-21T23:24:29.152Z,11.24
2023-03-21T23:26:55.656Z,11.25
2023-03-21T23:29:22.082Z,11.10
2023-03-21T23:31:48.548Z,11.10
2023-03-21T23:34:15.051Z,11.12
2023-03-21T23:36:41.842Z,11.06
2023-03-21T23:39:09.012Z,10.99
2023-03-21T23:41:35.554Z,10.91
2023-03-21T23:44:02.006Z,10.67
2023-03-21T23:46:28.537Z,10.69
2023-03-21T23:48:55.038Z,10.70
2023-03-21T23:51:21.736Z,10.77
2023-03-21T23:53:48.206Z,10.68
2023-03-21T23:56:17.973Z,10.49
2023-03-21T23:58:45.339Z,10.36
